createdAt,value
2022-08-03T00:01:03.932Z,18.23
2022-08-03T00:03:06.402Z,18.13
2022-08-03T00:05:08.810Z,18.06
2022-08-03T00:07:10.929Z,18.04
2022-08-03T00:09:12.931Z,18.19
2022-08-03T00:11:15.251Z,18.24
2022-08-03T00:13:17.302Z,18.18
2022-08-03T00:15:19.621Z,18.33
2022-08-03T00:17:22.033Z,18.34
2022-08-03T00:19:25.627Z,18.38
2022-08-03T00:21:28.727Z,18.28
2022-08-03T00:23:52.282Z,18.41
2022-08-03T00:25:53.257Z,18.35
2022-08-03T00:27:55.361Z,18.22
2022-08-03T00:30:00.253Z,18.10
2022-08-03T00:32:02.809Z,18.22
2022-08-03T00:34:06.131Z,18.21
2022-08-03T00:36:09.176Z,18.08
2022-08-03T00:38:11.280Z,17.91
2022-08-03T00:40:16.600Z,17.73
2022-08-03T00:42:19.147Z,17.57
2022-08-03T00:44:21.198Z,17.50
2022-08-03T00:46:23.339Z,17.46
2022-08-03T00:48:33.099Z,17.37
2022-08-03T00:50:42.002Z,17.25
2022-08-03T00:52:44.746Z,17.16
2022-08-03T00:54:47.106Z,17.00
2022-08-03T00:56:59.821Z,17.01
2022-08-03T00:59:04.289Z,17.02
2022-08-03T01:01:06.630Z,17.05
2022-08-03T01:03:10.946Z,17.07
2022-08-03T01:05:14.097Z,17.05
2022-08-03T01:07:39.537Z,17.04
2022-08-03T01:10:15.766Z,17.06
2022-08-03T01:12:35.212Z,17.10
2022-08-03T01:15:04.433Z,17.18
2022-08-03T01:17:21.453Z,17.35
2022-08-03T01:19:46.156Z,17.43
2022-08-03T01:22:17.806Z,17.56
2022-08-03T01:24:57.041Z,17.66
2022-08-03T01:27:09.526Z,17.67
2022-08-03T01:29:31.584Z,17.70
2022-08-03T01:32:53.470Z,17.60
2022-08-03T01:34:22.127Z,17.56
2022-08-03T01:36:34.313Z,17.42
2022-08-03T01:38:45.423Z,17.33
2022-08-03T01:40:54.006Z,17.21
2022-08-03T01:43:04.901Z,17.26
2022-08-03T01:45:11.438Z,17.21
2022-08-03T01:47:16.650Z,17.16
2022-08-03T01:49:27.631Z,17.14
2022-08-03T01:51:57.907Z,17.15
2022-08-03T01:54:10.661Z,17.16
2022-08-03T01:56:40.974Z,17.07
2022-08-03T01:58:51.057Z,17.10
2022-08-03T02:01:06.166Z,17.19
2022-08-03T02:03:22.827Z,17.15
2022-08-03T02:05:40.016Z,17.09
2022-08-03T02:08:15.593Z,17.13
2022-08-03T02:11:17.047Z,17.28
2022-08-03T02:17:10.271Z,17.18
2022-08-03T02:23:29.254Z,17.03
2022-08-03T02:26:02.290Z,17.17
2022-08-03T02:29:39.331Z,16.97
2022-08-03T02:32:51.847Z,17.03
2022-08-03T02:47:55.813Z,16.61
2022-08-03T02:52:06.573Z,16.69
2022-08-03T03:32:30.590Z,16.43
2022-08-03T03:43:46.623Z,16.40
2022-08-03T03:46:35.963Z,16.48
2022-08-03T03:48:39.973Z,16.55
2022-08-03T03:50:44.564Z,16.57
2022-08-03T03:52:47.033Z,16.62
2022-08-03T03:58:07.628Z,16.88
2022-08-03T04:00:12.913Z,16.94
2022-08-03T04:02:17.518Z,17.01
2022-08-03T04:17:28.728Z,17.61
2022-08-03T04:23:22.697Z,17.62
2022-08-03T04:25:30.400Z,17.57
2022-08-03T04:38:25.813Z,17.51
2022-08-03T04:40:40.344Z,17.43
2022-08-03T04:42:54.149Z,17.44
2022-08-03T04:45:19.395Z,17.36
2022-08-03T04:50:12.506Z,17.59
2022-08-03T04:53:06.887Z,17.62
2022-08-03T04:55:43.352Z,17.63
2022-08-03T04:59:17.328Z,17.57
2022-08-03T05:01:23.335Z,17.51
2022-08-03T05:03:51.720Z,17.53
2022-08-03T05:06:09.479Z,17.73
2022-08-03T05:08:12.577Z,17.75
2022-08-03T05:10:17.385Z,17.83
2022-08-03T05:12:20.431Z,17.84
2022-08-03T05:14:28.205Z,17.93
2022-08-03T05:16:30.762Z,17.96
2022-08-03T05:18:44.414Z,18.11
2022-08-03T05:20:52.726Z,18.18
2022-08-03T05:22:55.130Z,18.30
2022-08-03T05:24:57.342Z,18.61
2022-08-03T05:27:18.540Z,18.91
2022-08-03T05:29:54.086Z,19.81
2022-08-03T05:33:00.894Z,20.78
2022-08-03T05:36:26.651Z,22.08
2022-08-03T05:39:02.600Z,22.45
2022-08-03T05:41:22.540Z,22.61
2022-08-03T05:50:30.068Z,25.17
2022-08-03T05:52:32.139Z,25.98
2022-08-03T05:55:02.221Z,26.47
2022-08-03T05:57:04.920Z,26.80
2022-08-03T05:59:22.707Z,27.25
2022-08-03T06:01:50.257Z,27.62
2022-08-03T06:04:13.336Z,27.65
2022-08-03T06:06:16.036Z,27.42
2022-08-03T06:08:24.774Z,27.58
2022-08-03T06:13:49.818Z,28.71
2022-08-03T06:15:55.592Z,29.05
2022-08-03T06:19:05.176Z,29.52
2022-08-03T06:21:45.358Z,29.85
2022-08-03T06:23:55.483Z,30.33
2022-08-03T06:26:04.358Z,30.81
2022-08-03T06:28:35.297Z,30.97
2022-08-03T06:30:39.217Z,31.16
2022-08-03T06:32:43.199Z,31.32
2022-08-03T06:34:57.130Z,31.31
2022-08-03T06:37:02.378Z,31.23
2022-08-03T06:39:05.882Z,31.20
2022-08-03T06:43:31.497Z,31.14
2022-08-03T06:45:42.448Z,31.03
2022-08-03T06:48:12.529Z,31.04
2022-08-03T06:50:52.925Z,30.91
2022-08-03T06:52:59.642Z,29.95
2022-08-03T06:55:12.423Z,29.58
2022-08-03T06:57:39.383Z,29.43
2022-08-03T07:00:16.266Z,29.52
2022-08-03T07:02:41.658Z,29.25
2022-08-03T07:05:20.873Z,28.87
2022-08-03T07:07:45.309Z,28.95
2022-08-03T07:09:58.393Z,28.86
2022-08-03T07:12:16.063Z,28.87
2022-08-03T07:14:28.948Z,28.66
2022-08-03T07:16:39.366Z,28.38
2022-08-03T07:18:49.799Z,28.28
2022-08-03T07:21:01.387Z,28.06
2022-08-03T07:23:05.280Z,28.07
2022-08-03T07:25:29.887Z,28.20
2022-08-03T07:27:51.787Z,28.46
2022-08-03T07:30:08.498Z,28.76
2022-08-03T07:32:13.379Z,28.78
2022-08-03T07:35:01.571Z,28.76
2022-08-03T07:37:17.126Z,28.72
2022-08-03T07:42:44.371Z,28.96
2022-08-03T07:45:02.613Z,28.90
2022-08-03T07:47:46.190Z,28.68
2022-08-03T07:50:10.337Z,28.52
2022-08-03T07:55:44.095Z,28.62
2022-08-03T07:58:14.784Z,28.67
2022-08-03T08:01:07.174Z,28.85
2022-08-03T08:03:58.990Z,28.80
2022-08-03T08:09:46.083Z,28.62
2022-08-03T08:18:39.360Z,28.47
2022-08-03T08:21:52.933Z,28.36
2022-08-03T08:38:07.479Z,29.45
2022-08-03T08:40:49.398Z,29.58
2022-08-03T08:43:19.999Z,29.72
2022-08-03T09:00:16.477Z,29.45
2022-08-03T09:02:36.577Z,29.50
2022-08-03T09:14:39.282Z,29.84
2022-08-03T09:17:50.703Z,30.03
2022-08-03T09:20:10.212Z,30.10
2022-08-03T09:26:05.654Z,30.30
2022-08-03T09:28:56.556Z,30.34
2022-08-03T09:34:11.992Z,30.34
2022-08-03T09:36:55.873Z,30.53
2022-08-03T09:54:47.440Z,31.05
2022-08-03T09:57:01.457Z,31.15
2022-08-03T09:59:41.334Z,31.25
2022-08-03T10:02:03.611Z,31.18
2022-08-03T10:04:17.060Z,31.22
2022-08-03T10:06:36.145Z,30.84
2022-08-03T10:09:13.151Z,30.67
2022-08-03T10:11:42.129Z,30.71
2022-08-03T10:13:58.047Z,30.76
2022-08-03T10:16:21.603Z,30.65
2022-08-03T10:18:48.210Z,30.79
2022-08-03T10:21:11.521Z,31.06
2022-08-03T10:23:27.829Z,31.28
2022-08-03T10:28:19.872Z,31.59
2022-08-03T10:30:40.669Z,31.52
2022-08-03T10:33:50.277Z,31.59
2022-08-03T10:35:41.952Z,31.60
2022-08-03T10:38:03.881Z,31.57
2022-08-03T10:40:51.715Z,31.44
2022-08-03T10:42:54.565Z,31.69
2022-08-03T10:45:06.668Z,31.91
2022-08-03T10:47:11.436Z,32.00
2022-08-03T10:51:38.493Z,32.16
2022-08-03T10:54:10.492Z,32.16
2022-08-03T10:56:49.527Z,32.09
2022-08-03T10:58:57.497Z,31.89
2022-08-03T11:01:00.643Z,31.58
2022-08-03T11:03:14.213Z,31.37
2022-08-03T11:05:28.506Z,31.35
2022-08-03T11:07:31.544Z,31.43
2022-08-03T11:09:58.572Z,31.53
2022-08-03T11:12:34.875Z,31.91
2022-08-03T11:17:31.833Z,32.39
2022-08-03T11:19:58.331Z,32.62
2022-08-03T11:22:08.773Z,32.64
2022-08-03T11:24:27.633Z,32.54
2022-08-03T11:26:30.712Z,32.51
2022-08-03T11:28:35.574Z,32.63
2022-08-03T11:30:47.193Z,32.80
2022-08-03T11:32:54.622Z,33.07
2022-08-03T11:35:35.613Z,33.33
2022-08-03T11:38:03.415Z,33.01
2022-08-03T11:40:34.053Z,32.69
2022-08-03T11:42:36.243Z,32.43
2022-08-03T11:44:42.231Z,32.16
2022-08-03T11:46:52.852Z,32.04
2022-08-03T11:49:09.279Z,32.03
2022-08-03T11:51:31.383Z,32.13
2022-08-03T11:53:42.162Z,32.34
2022-08-03T11:55:58.652Z,32.62
2022-08-03T11:59:01.644Z,32.85
2022-08-03T12:00:29.783Z,33.11
2022-08-03T12:02:33.933Z,33.20
2022-08-03T12:04:53.638Z,33.31
2022-08-03T12:07:01.637Z,33.20
2022-08-03T12:09:17.374Z,32.57
2022-08-03T12:11:23.893Z,32.54
2022-08-03T12:14:44.815Z,32.70
2022-08-03T12:15:56.342Z,32.35
2022-08-03T12:17:58.613Z,32.11
2022-08-03T12:20:02.282Z,32.00
2022-08-03T12:22:04.913Z,32.19
2022-08-03T12:24:07.382Z,32.40
2022-08-03T12:26:10.558Z,32.59
2022-08-03T12:28:31.794Z,32.62
2022-08-03T12:30:40.634Z,32.82
2022-08-03T12:32:44.573Z,32.90
2022-08-03T12:34:48.676Z,32.90
2022-08-03T12:36:55.844Z,32.78
2022-08-03T12:39:16.374Z,32.87
2022-08-03T12:41:30.473Z,32.84
2022-08-03T12:43:39.547Z,32.87
2022-08-03T12:45:42.553Z,32.91
2022-08-03T12:47:59.909Z,32.99
2022-08-03T12:50:02.107Z,32.96
2022-08-03T12:52:07.630Z,33.06
2022-08-03T12:54:17.556Z,33.16
2022-08-03T12:56:20.463Z,33.20
2022-08-03T12:58:35.483Z,33.21
2022-08-03T13:00:38.168Z,33.22
2022-08-03T13:02:41.014Z,33.20
2022-08-03T13:04:54.055Z,33.20
2022-08-03T13:07:15.849Z,33.26
2022-08-03T13:09:20.463Z,33.21
2022-08-03T13:11:55.671Z,33.11
2022-08-03T13:13:54.392Z,33.07
2022-08-03T13:15:56.574Z,33.16
2022-08-03T13:17:59.394Z,33.15
2022-08-03T13:20:04.582Z,33.24
2022-08-03T13:22:18.413Z,33.37
2022-08-03T13:24:21.053Z,33.43
2022-08-03T13:26:38.534Z,33.48
2022-08-03T13:28:41.309Z,33.50
2022-08-03T13:30:44.832Z,33.60
2022-08-03T13:32:47.212Z,33.65
2022-08-03T13:34:50.233Z,33.65
2022-08-03T13:37:10.078Z,33.57
2022-08-03T13:39:14.031Z,33.52
2022-08-03T13:41:17.003Z,33.50
2022-08-03T13:45:53.591Z,33.34
2022-08-03T13:48:01.762Z,33.33
2022-08-03T13:50:05.107Z,33.36
2022-08-03T13:52:07.942Z,33.47
2022-08-03T13:54:10.414Z,33.43
2022-08-03T13:56:12.963Z,33.27
2022-08-03T13:58:15.668Z,33.17
2022-08-03T14:00:27.005Z,33.29
2022-08-03T14:02:31.455Z,33.19
2022-08-03T14:04:33.804Z,32.92
2022-08-03T14:06:36.004Z,32.64
2022-08-03T14:08:38.725Z,32.44
2022-08-03T14:10:44.008Z,32.56
2022-08-03T14:12:46.713Z,32.69
2022-08-03T14:14:49.135Z,32.69
2022-08-03T14:16:51.634Z,32.83
2022-08-03T14:18:57.664Z,32.81
2022-08-03T14:21:07.185Z,32.78
2022-08-03T14:23:10.014Z,32.67
2022-08-03T14:25:12.494Z,32.64
2022-08-03T14:27:16.646Z,32.80
2022-08-03T14:29:18.853Z,32.80
2022-08-03T14:32:09.428Z,32.74
2022-08-03T14:33:47.215Z,32.89
2022-08-03T14:36:05.974Z,32.86
2022-08-03T14:38:08.256Z,32.77
2022-08-03T14:40:13.987Z,32.63
2022-08-03T14:42:18.317Z,32.69
2022-08-03T14:44:22.693Z,32.62
2022-08-03T14:46:25.137Z,32.72
2022-08-03T14:50:30.922Z,32.77
2022-08-03T14:51:27.460Z,32.84
2022-08-03T14:54:03.011Z,32.89
2022-08-03T14:56:12.724Z,32.81
2022-08-03T14:58:39.772Z,32.63
2022-08-03T15:01:02.114Z,32.46
2022-08-03T15:03:17.500Z,32.30
2022-08-03T15:05:30.748Z,32.23
2022-08-03T15:10:27.115Z,32.23
2022-08-03T15:12:58.882Z,32.27
2022-08-03T15:15:19.363Z,32.31
2022-08-03T15:17:28.854Z,32.39
2022-08-03T15:20:03.459Z,32.36
2022-08-03T15:22:07.708Z,32.31
2022-08-03T15:24:42.891Z,32.32
2022-08-03T15:27:01.599Z,32.35
2022-08-03T15:30:05.484Z,32.47
2022-08-03T15:31:42.729Z,32.45
2022-08-03T15:33:53.471Z,32.43
2022-08-03T15:35:57.912Z,32.36
2022-08-03T15:38:10.298Z,32.31
2022-08-03T15:40:25.565Z,32.31
2022-08-03T15:43:14.812Z,32.32
2022-08-03T15:45:27.875Z,32.42
2022-08-03T15:47:41.117Z,32.40
2022-08-03T15:49:54.865Z,32.50
2022-08-03T15:52:30.880Z,32.48
2022-08-03T15:54:36.696Z,32.45
2022-08-03T15:56:45.040Z,32.38
2022-08-03T15:59:09.294Z,32.33
2022-08-03T16:01:19.786Z,32.33
2022-08-03T16:03:23.668Z,32.43
2022-08-03T16:05:26.352Z,32.36
2022-08-03T16:07:28.713Z,32.42
2022-08-03T16:09:42.831Z,32.27
2022-08-03T16:11:48.283Z,32.13
2022-08-03T16:14:13.484Z,32.09
2022-08-03T16:16:13.554Z,32.08
2022-08-03T16:18:24.442Z,32.01
2022-08-03T16:20:34.964Z,31.91
2022-08-03T16:22:46.823Z,31.94
2022-08-03T16:24:50.889Z,31.87
2022-08-03T16:27:17.696Z,31.94
2022-08-03T16:29:38.363Z,31.87
2022-08-03T16:31:41.612Z,31.76
2022-08-03T16:33:56.149Z,31.69
2022-08-03T16:35:58.624Z,31.56
2022-08-03T16:38:02.838Z,31.45
2022-08-03T16:40:47.481Z,31.37
2022-08-03T16:42:53.192Z,31.27
2022-08-03T16:44:57.701Z,31.10
2022-08-03T16:47:02.613Z,31.00
2022-08-03T16:49:05.012Z,30.88
2022-08-03T16:51:07.624Z,30.88
2022-08-03T16:53:15.559Z,30.85
2022-08-03T16:55:48.688Z,30.74
2022-08-03T16:57:59.118Z,30.69
2022-08-03T17:00:03.693Z,30.46
2022-08-03T17:02:10.110Z,30.41
2022-08-03T17:04:15.871Z,30.41
2022-08-03T17:06:20.015Z,30.40
2022-08-03T17:08:26.528Z,30.33
2022-08-03T17:10:30.133Z,30.30
2022-08-03T17:12:32.710Z,30.24
2022-08-03T17:14:51.271Z,30.20
2022-08-03T17:17:24.795Z,30.15
2022-08-03T17:19:37.665Z,30.12
2022-08-03T17:22:06.010Z,30.11
2022-08-03T17:24:41.487Z,30.03
2022-08-03T17:26:49.832Z,29.88
2022-08-03T17:28:57.487Z,29.75
2022-08-03T17:31:23.382Z,29.46
2022-08-03T17:33:38.032Z,29.26
2022-08-03T17:35:58.615Z,29.07
2022-08-03T17:38:10.389Z,28.94
2022-08-03T17:40:19.355Z,28.76
2022-08-03T17:42:31.124Z,28.62
2022-08-03T17:44:46.393Z,28.59
2022-08-03T17:47:02.008Z,28.38
2022-08-03T17:49:24.886Z,28.19
2022-08-03T17:55:50.464Z,27.71
2022-08-03T17:57:29.127Z,27.63
2022-08-03T18:00:18.678Z,27.55
2022-08-03T18:03:10.082Z,27.56
2022-08-03T18:05:21.823Z,27.54
2022-08-03T18:07:43.846Z,27.48
2022-08-03T18:10:11.318Z,27.38
2022-08-03T18:12:52.844Z,27.35
2022-08-03T18:15:20.818Z,27.29
2022-08-03T18:17:58.152Z,27.27
2022-08-03T18:20:02.156Z,27.08
2022-08-03T18:22:21.646Z,26.85
2022-08-03T18:24:55.641Z,26.66
2022-08-03T18:27:55.314Z,26.49
2022-08-03T18:30:20.497Z,26.43
2022-08-03T18:32:35.118Z,26.40
2022-08-03T18:35:06.033Z,26.40
2022-08-03T18:37:51.796Z,26.37
2022-08-03T18:40:22.538Z,26.33
2022-08-03T18:42:32.173Z,26.28
2022-08-03T18:45:56.079Z,26.15
2022-08-03T18:50:49.716Z,26.03
2022-08-03T18:54:03.942Z,26.05
2022-08-03T18:56:58.848Z,25.99
2022-08-03T19:00:24.438Z,25.99
2022-08-03T19:02:57.224Z,25.90
2022-08-03T19:05:10.614Z,25.76
2022-08-03T19:07:22.150Z,25.78
2022-08-03T19:09:39.798Z,25.68
2022-08-03T19:12:12.796Z,25.54
2022-08-03T19:14:28.689Z,25.46
2022-08-03T19:16:41.267Z,25.39
2022-08-03T19:18:52.416Z,25.33
2022-08-03T19:21:12.830Z,25.30
2022-08-03T19:24:10.143Z,25.15
2022-08-03T19:26:30.535Z,24.98
2022-08-03T19:28:38.436Z,24.89
2022-08-03T19:30:46.158Z,24.88
2022-08-03T19:32:55.844Z,24.94
2022-08-03T19:35:01.711Z,24.92
2022-08-03T19:37:04.984Z,24.91
2022-08-03T19:39:09.236Z,24.90
2022-08-03T19:41:15.003Z,24.88
2022-08-03T19:43:23.164Z,24.87
2022-08-03T19:46:05.237Z,24.91
2022-08-03T19:48:09.450Z,24.91
2022-08-03T19:50:14.712Z,24.92
2022-08-03T19:52:31.143Z,24.86
2022-08-03T19:54:52.899Z,24.70
2022-08-03T19:56:57.738Z,24.49
2022-08-03T19:59:02.075Z,24.36
2022-08-03T20:03:43.336Z,24.29
2022-08-03T20:05:52.379Z,24.24
2022-08-03T20:08:01.298Z,24.22
2022-08-03T20:10:06.099Z,24.22
2022-08-03T20:12:11.652Z,24.21
2022-08-03T20:14:26.200Z,24.17
2022-08-03T20:16:29.464Z,24.16
2022-08-03T20:18:38.920Z,24.07
2022-08-03T20:20:41.994Z,24.05
2022-08-03T20:22:48.087Z,24.04
2022-08-03T20:24:56.417Z,24.03
2022-08-03T20:27:01.206Z,23.99
2022-08-03T20:29:09.902Z,23.95
2022-08-03T20:31:12.986Z,23.87
2022-08-03T20:33:19.100Z,23.77
2022-08-03T20:35:21.954Z,23.71
2022-08-03T20:37:24.026Z,23.68
2022-08-03T20:39:26.691Z,23.55
2022-08-03T20:41:30.725Z,23.43
2022-08-03T20:43:34.186Z,23.39
2022-08-03T20:45:58.430Z,23.33
2022-08-03T20:48:05.316Z,23.27
2022-08-03T20:50:09.166Z,23.19
2022-08-03T20:52:18.403Z,23.18
2022-08-03T20:54:29.486Z,23.15
2022-08-03T20:56:38.805Z,23.11
2022-08-03T20:58:42.886Z,23.00
2022-08-03T21:00:54.322Z,22.97
2022-08-03T21:02:57.620Z,22.98
2022-08-03T21:05:08.556Z,22.96
2022-08-03T21:07:19.509Z,22.98
2022-08-03T21:09:39.875Z,22.91
2022-08-03T21:11:51.957Z,22.93
2022-08-03T21:12:55.449Z,27.94
2022-08-03T21:13:03.414Z,24.30
2022-08-03T21:14:15.870Z,22.91
2022-08-03T21:16:20.466Z,22.89
2022-08-03T21:18:23.667Z,22.90
2022-08-03T21:20:32.049Z,22.87
2022-08-03T21:22:38.359Z,22.83
2022-08-03T21:24:42.694Z,22.75
2022-08-03T21:26:49.939Z,22.69
2022-08-03T21:28:59.904Z,22.62
2022-08-03T21:31:02.381Z,22.64
2022-08-03T21:33:05.602Z,22.60
2022-08-03T21:35:11.791Z,22.53
2022-08-03T21:37:15.975Z,22.47
2022-08-03T21:39:20.774Z,22.39
2022-08-03T21:41:29.965Z,22.32
2022-08-03T21:43:32.708Z,22.23
2022-08-03T21:46:03.637Z,22.08
2022-08-03T21:48:07.323Z,21.94
2022-08-03T21:50:13.061Z,21.99
2022-08-03T21:52:16.355Z,22.06
2022-08-03T21:54:21.078Z,22.09
2022-08-03T21:56:47.715Z,21.99
2022-08-03T21:59:16.856Z,22.02
2022-08-03T22:01:39.910Z,21.97
2022-08-03T22:06:39.881Z,21.85
2022-08-03T22:08:47.126Z,21.92
2022-08-03T22:13:49.244Z,21.93
2022-08-03T22:16:09.464Z,22.06
2022-08-03T22:18:19.220Z,22.02
2022-08-03T22:20:38.766Z,21.87
2022-08-03T22:22:44.338Z,21.69
2022-08-03T22:25:18.463Z,21.62
2022-08-03T22:27:22.531Z,21.51
2022-08-03T22:29:46.218Z,21.43
2022-08-03T22:31:58.685Z,21.28
2022-08-03T22:34:02.083Z,21.35
2022-08-03T22:36:04.987Z,21.17
2022-08-03T22:38:09.905Z,21.18
2022-08-03T22:40:14.868Z,21.15
2022-08-03T22:42:19.934Z,21.08
2022-08-03T22:44:22.291Z,21.09
2022-08-03T22:46:27.398Z,21.06
2022-08-03T22:48:34.186Z,21.04
2022-08-03T22:50:37.316Z,20.98
2022-08-03T22:52:44.059Z,20.95
2022-08-03T22:54:46.982Z,20.94
2022-08-03T22:56:51.600Z,20.95
2022-08-03T22:58:54.380Z,20.89
2022-08-03T23:01:07.567Z,20.93
2022-08-03T23:03:10.237Z,20.85
2022-08-03T23:06:00.991Z,20.85
2022-08-03T23:07:45.635Z,20.84
2022-08-03T23:09:49.157Z,20.85
2022-08-03T23:11:55.424Z,20.87
2022-08-03T23:13:59.434Z,20.84
2022-08-03T23:16:06.035Z,20.83
2022-08-03T23:18:09.840Z,20.80
2022-08-03T23:20:14.031Z,20.82
2022-08-03T23:22:29.365Z,20.79
2022-08-03T23:24:36.713Z,20.73
2022-08-03T23:26:39.816Z,20.72
2022-08-03T23:28:46.741Z,20.63
2022-08-03T23:30:50.275Z,20.53
2022-08-03T23:32:54.911Z,20.51
2022-08-03T23:35:03.122Z,20.49
2022-08-03T23:37:05.917Z,20.44
2022-08-03T23:39:09.321Z,20.38
2022-08-03T23:41:13.168Z,20.34
2022-08-03T23:43:18.945Z,20.36
2022-08-03T23:45:40.237Z,20.34
2022-08-03T23:47:46.302Z,20.30
2022-08-03T23:49:49.872Z,20.27
2022-08-03T23:52:43.115Z,20.25
2022-08-03T23:55:15.474Z,20.19
2022-08-03T23:57:37.436Z,20.17
2022-08-03T23:59:44.397Z,20.15
